createdAt,value
2023-10-22T00:01:27.523Z,97.75
2023-10-22T00:04:00.190Z,97.69
2023-10-22T00:06:33.385Z,97.63
2023-10-22T00:09:06.099Z,97.66
2023-10-22T00:11:38.733Z,97.69
2023-10-22T00:14:11.198Z,97.77
2023-10-22T00:16:43.665Z,97.80
2023-10-22T00:19:16.183Z,97.80
2023-10-22T00:21:48.763Z,97.73
2023-10-22T00:24:21.476Z,97.80
2023-10-22T00:26:54.314Z,97.84
2023-10-22T00:29:26.843Z,97.81
2023-10-22T00:31:59.841Z,97.89
2023-10-22T00:34:32.647Z,97.93
2023-10-22T00:37:05.560Z,98.00
2023-10-22T00:39:38.347Z,97.98
2023-10-22T00:42:11.208Z,97.93
2023-10-22T00:44:44.188Z,97.93
2023-10-22T00:47:18.030Z,97.93
2023-10-22T00:49:51.368Z,97.98
2023-10-22T00:52:24.334Z,97.97
2023-10-22T00:54:57.572Z,97.99
2023-10-22T00:57:31.265Z,98.00
2023-10-22T01:00:03.820Z,97.89
2023-10-22T01:02:36.669Z,97.90
2023-10-22T01:05:11.505Z,97.97
2023-10-22T01:07:45.232Z,97.96
2023-10-22T01:10:17.876Z,97.99
2023-10-22T01:12:50.593Z,97.92
2023-10-22T01:15:23.110Z,97.94
2023-10-22T01:17:56.207Z,97.88
2023-10-22T01:20:28.988Z,97.93
2023-10-22T01:23:02.840Z,97.89
2023-10-22T01:25:36.940Z,97.92
2023-10-22T01:28:09.682Z,97.91
2023-10-22T01:30:43.290Z,97.90
2023-10-22T01:33:16.120Z,97.82
2023-10-22T01:35:48.667Z,97.73
2023-10-22T01:38:21.562Z,97.81
2023-10-22T01:40:53.985Z,97.82
2023-10-22T01:43:27.004Z,97.81
2023-10-22T01:45:59.644Z,97.71
2023-10-22T01:48:32.636Z,97.74
2023-10-22T01:51:05.479Z,97.63
2023-10-22T01:53:38.088Z,97.65
2023-10-22T01:56:11.748Z,97.63
2023-10-22T01:58:45.407Z,97.59
2023-10-22T02:01:18.247Z,97.57
2023-10-22T02:03:50.784Z,97.63
2023-10-22T02:06:23.546Z,97.59
2023-10-22T02:08:56.124Z,97.50
2023-10-22T02:11:29.453Z,97.67
2023-10-22T02:14:02.310Z,97.69
2023-10-22T02:16:35.281Z,97.64
2023-10-22T02:19:08.233Z,97.57
2023-10-22T02:21:40.979Z,97.63
2023-10-22T02:24:13.588Z,97.68
2023-10-22T02:26:46.287Z,97.75
2023-10-22T02:29:19.158Z,97.65
2023-10-22T02:31:51.592Z,97.72
2023-10-22T02:34:24.531Z,97.63
2023-10-22T02:36:56.953Z,97.65
2023-10-22T02:39:31.313Z,97.65
2023-10-22T02:42:03.757Z,97.61
2023-10-22T02:44:37.341Z,97.60
2023-10-22T02:47:11.271Z,97.56
2023-10-22T02:49:43.697Z,97.62
2023-10-22T02:52:16.270Z,97.60
2023-10-22T02:54:50.310Z,97.68
2023-10-22T02:57:22.770Z,97.57
2023-10-22T02:59:55.699Z,97.65
2023-10-22T03:02:28.364Z,97.59
2023-10-22T03:05:01.523Z,97.70
2023-10-22T03:07:34.088Z,97.70
2023-10-22T03:10:07.594Z,97.68
2023-10-22T03:12:40.062Z,97.65
2023-10-22T03:15:13.951Z,97.69
2023-10-22T03:17:46.539Z,97.77
2023-10-22T03:20:20.551Z,97.83
2023-10-22T03:22:53.360Z,97.89
2023-10-22T03:25:26.132Z,98.00
2023-10-22T03:27:58.628Z,97.86
2023-10-22T03:30:31.144Z,97.90
2023-10-22T03:33:05.147Z,98.05
2023-10-22T03:35:38.512Z,97.98
2023-10-22T03:38:12.333Z,97.96
2023-10-22T03:40:45.093Z,97.91
2023-10-22T03:43:17.578Z,97.89
2023-10-22T03:45:50.195Z,97.83
2023-10-22T03:48:22.848Z,97.78
2023-10-22T03:50:55.759Z,97.83
2023-10-22T03:53:28.439Z,97.84
2023-10-22T03:56:01.586Z,97.83
2023-10-22T03:58:34.582Z,97.84
2023-10-22T04:01:07.082Z,97.83
2023-10-22T04:03:39.753Z,97.87
2023-10-22T04:06:12.577Z,97.87
2023-10-22T04:08:45.136Z,97.78
2023-10-22T04:11:20.506Z,97.74
2023-10-22T04:13:53.004Z,97.76
2023-10-22T04:16:25.901Z,97.78
2023-10-22T04:18:58.317Z,97.78
2023-10-22T04:21:30.866Z,97.64
2023-10-22T04:24:03.919Z,97.80
2023-10-22T04:26:36.578Z,97.77
2023-10-22T04:29:09.077Z,97.78
2023-10-22T04:31:41.988Z,97.79
2023-10-22T04:34:14.979Z,97.74
2023-10-22T04:36:47.454Z,97.84
2023-10-22T04:39:19.904Z,97.90
2023-10-22T04:41:52.414Z,97.98
2023-10-22T04:44:25.297Z,97.95
2023-10-22T04:46:57.771Z,97.95
2023-10-22T04:49:33.114Z,98.02
2023-10-22T04:52:10.552Z,98.07
2023-10-22T04:54:43.386Z,98.01
2023-10-22T04:57:15.955Z,98.11
2023-10-22T04:59:49.004Z,98.12
2023-10-22T05:02:22.042Z,98.12
2023-10-22T05:04:55.590Z,98.17
2023-10-22T05:07:28.534Z,98.07
2023-10-22T05:10:01.118Z,98.02
2023-10-22T05:12:34.116Z,98.03
2023-10-22T05:15:09.738Z,98.04
2023-10-22T05:17:42.584Z,98.09
2023-10-22T05:20:16.373Z,98.08
2023-10-22T05:22:49.774Z,98.14
2023-10-22T05:25:23.343Z,98.15
2023-10-22T05:27:56.135Z,98.11
2023-10-22T05:30:29.138Z,98.08
2023-10-22T05:33:02.907Z,98.17
2023-10-22T05:35:38.780Z,98.11
2023-10-22T05:38:11.243Z,98.13
2023-10-22T05:40:43.679Z,97.99
2023-10-22T05:43:17.140Z,97.87
2023-10-22T05:45:58.078Z,97.84
2023-10-22T05:48:30.747Z,97.85
2023-10-22T05:51:05.389Z,97.79
2023-10-22T05:53:37.918Z,97.87
2023-10-22T05:56:11.300Z,97.83
2023-10-22T05:58:44.701Z,97.80
2023-10-22T06:01:18.738Z,97.76
2023-10-22T06:03:51.399Z,97.69
2023-10-22T06:06:25.117Z,97.69
2023-10-22T06:08:57.693Z,97.50
2023-10-22T06:11:30.174Z,97.49
2023-10-22T06:14:03.229Z,97.46
2023-10-22T06:16:36.602Z,97.49
2023-10-22T06:19:09.757Z,97.61
2023-10-22T06:21:42.490Z,97.69
2023-10-22T06:24:15.078Z,97.61
2023-10-22T06:26:47.654Z,97.66
2023-10-22T06:29:20.182Z,97.67
2023-10-22T06:31:53.000Z,97.70
2023-10-22T06:34:25.943Z,97.72
2023-10-22T06:36:58.518Z,97.79
2023-10-22T06:39:31.057Z,97.83
2023-10-22T06:42:04.694Z,97.76
2023-10-22T06:44:38.548Z,97.85
2023-10-22T06:47:11.502Z,97.88
2023-10-22T06:49:44.102Z,97.91
2023-10-22T06:52:17.169Z,97.83
2023-10-22T06:54:50.011Z,97.91
2023-10-22T06:57:22.779Z,97.89
2023-10-22T06:59:58.408Z,97.80
2023-10-22T07:02:30.967Z,97.80
2023-10-22T07:05:03.566Z,97.86
2023-10-22T07:07:36.030Z,97.93
2023-10-22T07:10:10.384Z,97.94
2023-10-22T07:12:42.889Z,98.06
2023-10-22T07:15:16.353Z,98.00
2023-10-22T07:17:49.460Z,97.86
2023-10-22T07:20:23.161Z,97.83
2023-10-22T07:22:55.673Z,98.02
2023-10-22T07:25:28.209Z,98.06
2023-10-22T07:28:00.746Z,98.02
2023-10-22T07:30:33.380Z,97.99
2023-10-22T07:33:06.015Z,98.08
2023-10-22T07:35:39.393Z,98.02
2023-10-22T07:38:11.931Z,98.09
2023-10-22T07:40:44.412Z,98.03
2023-10-22T07:43:17.566Z,98.03
2023-10-22T07:45:50.129Z,98.03
2023-10-22T07:48:23.254Z,98.07
2023-10-22T07:50:55.995Z,97.88
2023-10-22T07:53:28.568Z,97.71
2023-10-22T07:56:01.542Z,97.92
2023-10-22T08:01:07.933Z,97.88
2023-10-22T08:03:40.901Z,97.86
2023-10-22T08:06:13.668Z,97.84
2023-10-22T08:08:46.470Z,97.82
2023-10-22T08:11:19.104Z,97.78
2023-10-22T08:13:51.733Z,97.87
2023-10-22T08:16:24.320Z,97.90
2023-10-22T08:18:57.277Z,97.93
2023-10-22T08:21:30.210Z,98.17
2023-10-22T08:24:02.813Z,98.08
2023-10-22T08:26:35.586Z,98.21
2023-10-22T08:29:09.629Z,98.13
2023-10-22T08:31:42.394Z,97.96
2023-10-22T08:34:15.058Z,97.91
2023-10-22T08:36:47.871Z,98.09
2023-10-22T08:39:20.635Z,98.17
2023-10-22T08:42:01.749Z,98.20
2023-10-22T08:44:41.660Z,98.20
2023-10-22T08:47:14.669Z,98.07
2023-10-22T08:49:50.942Z,98.25
2023-10-22T08:52:23.608Z,98.11
2023-10-22T08:54:56.192Z,97.96
2023-10-22T08:57:30.498Z,97.74
2023-10-22T09:00:04.133Z,97.66
2023-10-22T09:02:37.060Z,97.50
2023-10-22T09:05:13.352Z,97.80
2023-10-22T09:07:56.645Z,97.68
2023-10-22T09:10:33.204Z,97.71
2023-10-22T09:13:22.750Z,98.19
2023-10-22T09:15:58.803Z,98.35
2023-10-22T09:18:31.833Z,98.32
2023-10-22T09:21:10.085Z,98.21
2023-10-22T09:23:44.098Z,98.28
2023-10-22T09:26:17.418Z,98.22
2023-10-22T09:29:07.243Z,98.08
2023-10-22T09:31:39.800Z,98.05
2023-10-22T09:34:27.981Z,98.09
2023-10-22T09:37:01.592Z,98.24
2023-10-22T09:39:39.214Z,98.22
2023-10-22T09:42:17.520Z,98.20
2023-10-22T09:44:51.483Z,98.05
2023-10-22T09:47:26.749Z,98.14
2023-10-22T09:50:05.858Z,98.26
2023-10-22T09:52:44.412Z,98.47
2023-10-22T09:55:18.581Z,98.36
2023-10-22T09:57:52.470Z,98.45
2023-10-22T10:00:33.001Z,98.06
2023-10-22T10:03:12.934Z,98.12
2023-10-22T10:05:46.067Z,97.93
2023-10-22T10:08:19.723Z,97.87
2023-10-22T10:10:52.599Z,97.86
2023-10-22T10:13:25.157Z,97.59
2023-10-22T10:16:04.865Z,97.22
2023-10-22T10:19:05.209Z,97.17
2023-10-22T10:21:50.397Z,97.32
2023-10-22T10:24:28.244Z,97.28
2023-10-22T10:27:28.011Z,97.39
2023-10-22T10:30:21.832Z,97.49
2023-10-22T10:33:11.318Z,97.34
2023-10-22T10:35:49.364Z,96.98
2023-10-22T10:38:26.568Z,96.85
2023-10-22T10:40:59.645Z,96.61
2023-10-22T10:44:07.344Z,96.59
2023-10-22T10:46:39.954Z,96.43
2023-10-22T10:49:13.533Z,96.63
2023-10-22T10:52:02.102Z,96.93
2023-10-22T10:54:37.121Z,97.02
2023-10-22T10:57:10.338Z,96.92
2023-10-22T10:59:42.824Z,96.77
2023-10-22T11:02:16.284Z,96.68
2023-10-22T11:04:50.083Z,96.75
2023-10-22T11:07:27.187Z,96.90
2023-10-22T11:10:00.374Z,96.70
2023-10-22T11:12:33.411Z,96.30
2023-10-22T11:15:09.131Z,96.06
2023-10-22T11:17:44.228Z,96.20
2023-10-22T11:20:18.007Z,96.43
2023-10-22T11:22:50.476Z,96.46
2023-10-22T11:25:24.471Z,96.29
2023-10-22T11:27:57.729Z,95.95
2023-10-22T11:30:41.029Z,95.73
2023-10-22T11:33:30.241Z,95.86
2023-10-22T11:36:03.394Z,95.75
2023-10-22T11:38:42.906Z,96.00
2023-10-22T11:41:18.971Z,96.20
2023-10-22T11:43:53.477Z,95.88
2023-10-22T11:46:44.649Z,95.84
2023-10-22T11:49:19.525Z,96.13
2023-10-22T11:51:52.065Z,95.62
2023-10-22T11:54:44.308Z,95.36
2023-10-22T11:57:19.391Z,95.36
2023-10-22T11:59:51.884Z,95.60
2023-10-22T12:02:24.437Z,95.56
2023-10-22T12:04:56.922Z,95.04
2023-10-22T12:07:29.413Z,94.75
2023-10-22T12:10:01.996Z,94.65
2023-10-22T12:12:34.845Z,94.65
2023-10-22T12:15:10.255Z,94.32
2023-10-22T12:17:43.079Z,94.21
2023-10-22T12:20:16.509Z,94.20
2023-10-22T12:22:49.655Z,93.98
2023-10-22T12:25:22.162Z,94.51
2023-10-22T12:27:55.086Z,94.65
2023-10-22T12:30:28.255Z,94.79
2023-10-22T12:33:01.086Z,94.91
2023-10-22T12:35:33.865Z,94.59
2023-10-22T12:38:06.378Z,94.56
2023-10-22T12:40:40.016Z,94.50
2023-10-22T12:43:12.582Z,94.70
2023-10-22T12:45:45.381Z,94.46
2023-10-22T12:48:18.124Z,94.18
2023-10-22T12:50:53.871Z,94.41
2023-10-22T12:53:26.771Z,93.78
2023-10-22T12:56:00.154Z,93.77
2023-10-22T12:58:33.571Z,93.88
2023-10-22T13:01:09.069Z,94.13
2023-10-22T13:03:41.790Z,93.89
2023-10-22T13:06:14.618Z,93.40
2023-10-22T13:08:47.218Z,93.26
2023-10-22T13:11:22.364Z,93.81
2023-10-22T13:13:55.057Z,94.13
2023-10-22T13:16:27.621Z,94.17
2023-10-22T13:19:00.268Z,93.70
2023-10-22T13:21:32.974Z,93.93
2023-10-22T13:24:06.532Z,93.97
2023-10-22T13:26:39.163Z,93.80
2023-10-22T13:29:13.106Z,93.72
2023-10-22T13:31:45.694Z,93.63
2023-10-22T13:34:18.332Z,93.18
2023-10-22T13:36:50.797Z,93.49
2023-10-22T13:39:23.667Z,93.53
2023-10-22T13:41:56.211Z,93.64
2023-10-22T13:44:28.937Z,93.60
2023-10-22T13:47:01.363Z,93.73
2023-10-22T13:49:34.348Z,93.42
2023-10-22T13:52:07.347Z,93.73
2023-10-22T13:54:40.222Z,93.76
2023-10-22T13:57:12.938Z,93.79
2023-10-22T13:59:45.530Z,93.76
2023-10-22T14:02:18.039Z,93.95
2023-10-22T14:04:50.864Z,93.83
2023-10-22T14:07:23.427Z,93.86
2023-10-22T14:09:55.932Z,93.93
2023-10-22T14:12:28.502Z,94.05
2023-10-22T14:15:01.228Z,94.04
2023-10-22T14:17:34.145Z,93.91
2023-10-22T14:20:08.060Z,94.06
2023-10-22T14:22:40.629Z,94.12
2023-10-22T14:25:13.465Z,93.96
2023-10-22T14:27:47.621Z,93.99
2023-10-22T14:30:21.701Z,93.94
2023-10-22T14:32:54.735Z,94.11
2023-10-22T14:35:28.346Z,94.09
2023-10-22T14:38:00.911Z,94.25
2023-10-22T14:40:33.689Z,94.24
2023-10-22T14:43:06.478Z,94.19
2023-10-22T14:45:38.996Z,94.38
2023-10-22T14:48:12.271Z,94.29
2023-10-22T14:50:53.580Z,94.38
2023-10-22T14:53:26.510Z,94.35
2023-10-22T14:56:00.577Z,94.36
2023-10-22T14:58:34.142Z,94.34
2023-10-22T15:01:09.168Z,94.46
2023-10-22T15:03:41.920Z,94.52
2023-10-22T15:06:15.025Z,94.49
2023-10-22T15:08:47.553Z,94.40
2023-10-22T15:11:22.080Z,94.35
2023-10-22T15:13:55.490Z,94.36
2023-10-22T15:16:28.112Z,94.31
2023-10-22T15:19:01.041Z,94.31
2023-10-22T15:21:33.566Z,94.22
2023-10-22T15:24:06.639Z,94.29
2023-10-22T15:26:39.735Z,94.24
2023-10-22T15:29:12.585Z,94.32
2023-10-22T15:31:45.606Z,94.29
2023-10-22T15:34:18.073Z,94.37
2023-10-22T15:36:50.557Z,94.41
2023-10-22T15:39:23.121Z,94.40
2023-10-22T15:41:56.205Z,94.57
2023-10-22T15:44:28.790Z,94.43
2023-10-22T15:47:01.835Z,94.43
2023-10-22T15:49:34.367Z,94.47
2023-10-22T15:52:07.632Z,94.60
2023-10-22T15:54:40.265Z,94.52
2023-10-22T15:57:13.231Z,94.55
2023-10-22T15:59:45.728Z,94.53
2023-10-22T16:02:18.558Z,94.64
2023-10-22T16:04:51.434Z,94.59
2023-10-22T16:07:24.947Z,94.63
2023-10-22T16:09:57.571Z,94.68
2023-10-22T16:12:30.180Z,94.80
2023-10-22T16:15:02.734Z,94.90
2023-10-22T16:17:41.155Z,95.00
2023-10-22T16:20:15.453Z,95.15
2023-10-22T16:22:48.052Z,95.16
2023-10-22T16:25:20.653Z,95.27
2023-10-22T16:27:53.228Z,95.23
2023-10-22T16:30:26.818Z,95.34
2023-10-22T16:32:59.691Z,95.42
2023-10-22T16:35:33.590Z,95.44
2023-10-22T16:38:07.007Z,95.44
2023-10-22T16:40:41.898Z,95.40
2023-10-22T16:43:14.535Z,95.53
2023-10-22T16:45:51.003Z,95.60
2023-10-22T16:48:23.902Z,95.69
2023-10-22T16:51:03.633Z,95.67
2023-10-22T16:53:36.436Z,95.72
2023-10-22T16:56:09.750Z,95.84
2023-10-22T16:58:42.694Z,95.80
2023-10-22T17:01:15.279Z,95.87
2023-10-22T17:03:47.993Z,95.89
2023-10-22T17:06:20.739Z,95.95
2023-10-22T17:08:54.092Z,96.10
2023-10-22T17:11:27.273Z,96.01
2023-10-22T17:13:59.800Z,96.06
2023-10-22T17:16:32.435Z,96.17
2023-10-22T17:19:05.388Z,96.26
2023-10-22T17:21:38.203Z,96.35
2023-10-22T17:24:11.755Z,96.36
2023-10-22T17:26:44.802Z,96.41
2023-10-22T17:29:17.797Z,96.55
2023-10-22T17:31:50.316Z,96.61
2023-10-22T17:34:23.210Z,96.71
2023-10-22T17:36:55.941Z,96.68
2023-10-22T17:39:28.785Z,96.59
2023-10-22T17:42:01.535Z,96.84
2023-10-22T17:44:34.144Z,96.86
2023-10-22T17:47:08.446Z,96.91
2023-10-22T17:49:44.772Z,97.01
2023-10-22T17:52:17.311Z,96.95
2023-10-22T17:54:51.988Z,97.04
2023-10-22T17:57:24.584Z,97.14
2023-10-22T17:59:59.627Z,97.12
2023-10-22T18:02:32.193Z,97.10
2023-10-22T18:05:06.213Z,97.06
2023-10-22T18:07:38.777Z,96.97
2023-10-22T18:10:12.649Z,96.75
2023-10-22T18:12:45.427Z,96.85
2023-10-22T18:15:18.178Z,96.73
2023-10-22T18:17:50.773Z,96.76
2023-10-22T18:20:33.197Z,96.75
2023-10-22T18:23:06.552Z,96.69
2023-10-22T18:25:39.929Z,96.71
2023-10-22T18:28:12.548Z,96.86
2023-10-22T18:30:45.747Z,96.96
2023-10-22T18:33:18.778Z,97.08
2023-10-22T18:35:51.402Z,97.35
2023-10-22T18:38:24.121Z,97.38
2023-10-22T18:40:56.755Z,97.52
2023-10-22T18:43:29.893Z,97.64
2023-10-22T18:46:03.102Z,97.73
2023-10-22T18:48:36.146Z,97.76
2023-10-22T18:51:09.505Z,97.78
2023-10-22T18:53:43.876Z,97.65
2023-10-22T18:56:16.670Z,97.68
2023-10-22T18:58:50.410Z,97.84
2023-10-22T19:01:27.365Z,98.03
2023-10-22T19:04:02.077Z,98.29
2023-10-22T19:06:35.964Z,98.38
2023-10-22T19:09:08.814Z,98.44
2023-10-22T19:11:41.443Z,98.60
2023-10-22T19:14:18.993Z,98.67
2023-10-22T19:16:51.550Z,98.64
2023-10-22T19:19:24.572Z,98.85
2023-10-22T19:21:59.120Z,98.90
2023-10-22T19:24:33.683Z,98.97
2023-10-22T19:27:06.968Z,98.96
2023-10-22T19:29:41.605Z,99.09
2023-10-22T19:32:14.094Z,99.14
2023-10-22T19:34:46.560Z,99.19
2023-10-22T19:37:19.712Z,99.18
2023-10-22T19:39:52.770Z,99.17
2023-10-22T19:42:25.629Z,99.21
2023-10-22T19:44:58.477Z,99.25
2023-10-22T19:47:31.178Z,99.23
2023-10-22T19:50:06.374Z,99.12
2023-10-22T19:52:41.403Z,99.09
2023-10-22T19:55:14.711Z,98.94
2023-10-22T19:57:47.300Z,99.00
2023-10-22T20:00:20.440Z,99.00
2023-10-22T20:02:53.416Z,98.98
2023-10-22T20:05:26.423Z,98.98
2023-10-22T20:07:58.870Z,99.15
2023-10-22T20:10:42.555Z,99.04
2023-10-22T20:13:16.103Z,98.94
2023-10-22T20:15:50.284Z,99.04
2023-10-22T20:18:22.900Z,98.90
2023-10-22T20:20:55.495Z,99.01
2023-10-22T20:23:28.052Z,98.85
2023-10-22T20:26:00.886Z,98.77
2023-10-22T20:28:33.492Z,98.80
2023-10-22T20:31:06.181Z,98.71
2023-10-22T20:33:38.920Z,98.64
2023-10-22T20:36:12.871Z,98.54
2023-10-22T20:38:45.718Z,98.43
2023-10-22T20:41:19.452Z,98.40
2023-10-22T20:43:52.442Z,98.26
2023-10-22T20:46:24.925Z,98.19
2023-10-22T20:48:58.276Z,98.06
2023-10-22T20:51:30.885Z,97.98
2023-10-22T20:54:04.178Z,97.91
2023-10-22T20:56:36.903Z,97.85
2023-10-22T20:59:09.707Z,97.81
2023-10-22T21:01:42.223Z,97.81
2023-10-22T21:04:14.852Z,97.81
2023-10-22T21:06:47.953Z,97.91
2023-10-22T21:09:20.631Z,97.92
2023-10-22T21:11:53.695Z,98.00
2023-10-22T21:14:27.105Z,98.12
2023-10-22T21:17:00.275Z,98.01
2023-10-22T21:19:32.820Z,98.02
2023-10-22T21:22:05.543Z,98.02
2023-10-22T21:24:38.348Z,97.89
2023-10-22T21:27:11.263Z,97.98
2023-10-22T21:29:44.764Z,97.94
2023-10-22T21:32:17.290Z,97.88
2023-10-22T21:34:50.394Z,97.84
2023-10-22T21:37:22.936Z,97.83
2023-10-22T21:39:55.941Z,97.77
2023-10-22T21:42:28.968Z,97.81
2023-10-22T21:45:01.459Z,97.77
2023-10-22T21:47:34.551Z,97.75
2023-10-22T21:50:08.114Z,97.88
2023-10-22T21:52:40.667Z,97.93
2023-10-22T21:55:19.540Z,98.07
2023-10-22T21:57:52.480Z,98.17
2023-10-22T22:00:25.822Z,98.09
2023-10-22T22:02:58.625Z,98.19
2023-10-22T22:05:31.835Z,98.30
2023-10-22T22:08:04.918Z,98.36
2023-10-22T22:10:38.085Z,98.43
2023-10-22T22:13:11.145Z,98.60
2023-10-22T22:15:43.719Z,98.62
2023-10-22T22:18:16.760Z,98.63
2023-10-22T22:20:49.325Z,98.63
2023-10-22T22:23:24.321Z,98.70
2023-10-22T22:25:56.927Z,98.97
2023-10-22T22:28:29.477Z,98.96
2023-10-22T22:31:03.911Z,98.92
2023-10-22T22:33:36.616Z,98.92
2023-10-22T22:36:10.140Z,99.11
2023-10-22T22:38:42.853Z,98.99
2023-10-22T22:41:15.864Z,98.83
2023-10-22T22:43:48.393Z,98.71
2023-10-22T22:46:21.405Z,98.67
2023-10-22T22:48:54.968Z,98.66
2023-10-22T22:51:28.084Z,98.70
2023-10-22T22:54:00.615Z,98.73
2023-10-22T22:56:33.266Z,98.77
2023-10-22T22:59:06.214Z,98.67
2023-10-22T23:01:40.793Z,98.49
2023-10-22T23:04:13.708Z,98.37
2023-10-22T23:06:46.603Z,98.43
2023-10-22T23:09:19.159Z,98.16
2023-10-22T23:11:51.681Z,98.05
2023-10-22T23:14:24.182Z,97.99
2023-10-22T23:16:56.676Z,98.06
2023-10-22T23:19:29.449Z,98.10
2023-10-22T23:22:02.248Z,98.03
2023-10-22T23:24:34.787Z,98.22
2023-10-22T23:27:08.216Z,98.13
2023-10-22T23:29:43.168Z,98.10
2023-10-22T23:32:15.695Z,98.03
2023-10-22T23:34:48.121Z,98.07
2023-10-22T23:37:20.656Z,98.03
2023-10-22T23:39:53.374Z,98.12
2023-10-22T23:42:26.040Z,97.98
2023-10-22T23:44:58.521Z,98.06
2023-10-22T23:47:31.636Z,97.95
2023-10-22T23:50:04.537Z,97.92
2023-10-22T23:52:37.331Z,97.96
2023-10-22T23:55:10.909Z,97.89
2023-10-22T23:57:43.650Z,97.86
